Time;durP1;ratioP1;P1;durP2;ratioP2;P2;SDS_P1;SDS_P2;PMS_P1;PMS_P2;Temp;Humidity;BMP_temperature;BMP_pressure;BME280_temperature;BME280_humidity;BME280_pressure;Samples;Min_cycle;Max_cycle;Signal;HPM_P1;HPM_P2
2022/05/16 00:01:52;;;;;;;7.33;3.17;;;16.80;99.90;;;;;;4982320;28;20204;-71
2022/05/16 00:04:19;;;;;;;5.40;3.23;;;16.60;99.90;;;;;;4981477;28;20197;-69
2022/05/16 00:06:46;;;;;;;4.87;3.10;;;16.50;99.90;;;;;;4988721;28;20216;-72
2022/05/16 00:09:13;;;;;;;4.30;3.00;;;16.50;99.90;;;;;;4989352;28;20212;-71
2022/05/16 00:11:40;;;;;;;4.47;3.00;;;16.70;99.90;;;;;;4988445;28;20710;-73
2022/05/16 00:14:07;;;;;;;4.60;3.07;;;16.70;99.90;;;;;;4980278;28;20622;-72
2022/05/16 00:16:34;;;;;;;4.33;3.20;;;16.80;99.90;;;;;;4988310;28;20587;-71
2022/05/16 00:19:03;;;;;;;5.97;2.90;;;16.80;99.90;;;;;;4985997;28;20197;-73
2022/05/16 00:21:30;;;;;;;5.47;2.90;;;16.80;99.90;;;;;;4981640;28;20201;-71
2022/05/16 00:23:57;;;;;;;4.73;3.07;;;16.70;99.90;;;;;;4983806;28;20208;-72
2022/05/16 00:26:23;;;;;;;6.63;3.07;;;16.60;99.90;;;;;;4984340;28;20220;-72
2022/05/16 00:28:50;;;;;;;5.07;3.67;;;16.50;99.90;;;;;;4981067;28;20216;-71
2022/05/16 00:31:17;;;;;;;6.27;3.53;;;16.40;99.90;;;;;;4983849;28;20611;-72
2022/05/16 00:33:43;;;;;;;4.70;3.17;;;16.30;99.90;;;;;;4975881;28;20707;-71
2022/05/16 00:36:10;;;;;;;5.63;3.47;;;16.30;99.90;;;;;;4978142;28;20240;-71
2022/05/16 00:38:37;;;;;;;7.83;3.27;;;16.20;99.90;;;;;;4977509;28;20209;-74
2022/05/16 00:41:05;;;;;;;8.47;3.63;;;16.20;99.90;;;;;;4979275;28;20197;-71
2022/05/16 00:43:47;;;;;;;7.17;3.67;;;16.10;99.90;;;;;;4982957;28;20264;-72
2022/05/16 00:46:16;;;;;;;5.00;3.60;;;16.00;99.90;;;;;;4981155;28;20284;-73
2022/05/16 00:48:42;;;;;;;4.90;3.30;;;15.90;99.90;;;;;;4978770;28;20722;-71
2022/05/16 00:51:18;;;;;;;5.20;3.20;;;15.80;99.90;;;;;;4975174;28;20198;-71
2022/05/16 00:53:46;;;;;;;4.60;3.40;;;15.80;99.90;;;;;;4978788;28;20188;-71
2022/05/16 00:56:14;;;;;;;6.33;3.63;;;15.70;99.90;;;;;;4980401;28;20603;-71
2022/05/16 00:58:41;;;;;;;7.40;3.87;;;15.60;99.90;;;;;;4989054;28;20669;-75
2022/05/16 01:06:42;;;;;;;5.50;3.87;;;15.50;99.90;;;;;;4992177;28;20228;-71
2022/05/16 01:09:09;;;;;;;6.97;3.60;;;15.60;99.90;;;;;;4987285;28;20216;-71
2022/05/16 01:11:38;;;;;;;4.73;3.47;;;15.60;99.90;;;;;;4988263;28;20193;-74
2022/05/16 01:14:04;;;;;;;6.00;3.80;;;15.50;99.90;;;;;;4981526;28;20201;-71
2022/05/16 01:16:31;;;;;;;5.77;3.77;;;15.60;99.90;;;;;;4981229;28;20229;-71
2022/05/16 01:18:59;;;;;;;6.23;3.93;;;15.70;99.90;;;;;;4990007;28;20226;-72
2022/05/16 01:21:39;;;;;;;5.20;3.30;;;15.60;99.90;;;;;;4981413;28;20575;-72
2022/05/16 01:24:12;;;;;;;6.17;3.30;;;15.50;99.90;;;;;;4983246;28;20232;-72
2022/05/16 01:26:40;;;;;;;5.40;3.40;;;15.60;99.90;;;;;;4984503;28;20225;-73
2022/05/16 01:29:07;;;;;;;5.40;3.27;;;15.60;99.90;;;;;;4978458;28;20229;-72
2022/05/16 01:31:34;;;;;;;6.10;3.43;;;15.80;99.90;;;;;;4987005;28;20197;-71
2022/05/16 01:34:02;;;;;;;7.60;3.20;;;15.80;99.90;;;;;;4982826;28;20202;-71
2022/05/16 01:36:29;;;;;;;5.90;3.77;;;15.70;99.90;;;;;;4982228;28;20222;-71
2022/05/16 01:38:55;;;;;;;7.97;3.17;;;15.70;99.90;;;;;;4990203;28;20299;-71
2022/05/16 01:41:24;;;;;;;6.40;3.40;;;15.70;99.90;;;;;;4983022;28;20255;-70
2022/05/16 01:43:55;;;;;;;5.73;3.33;;;15.60;99.90;;;;;;4988160;28;20201;-73
2022/05/16 01:46:35;;;;;;;4.70;3.20;;;15.60;99.90;;;;;;4987388;28;20216;-69
2022/05/16 01:49:07;;;;;;;4.47;2.93;;;15.50;99.90;;;;;;4977262;28;20239;-71
2022/05/16 01:51:34;;;;;;;5.33;3.13;;;15.50;99.90;;;;;;4978229;28;20657;-71
2022/05/16 01:54:03;;;;;;;6.60;3.30;;;15.50;99.90;;;;;;4987247;28;20669;-71
2022/05/16 01:56:31;;;;;;;6.57;3.63;;;15.50;99.90;;;;;;4990394;28;20213;-71
2022/05/16 01:59:00;;;;;;;5.73;3.40;;;15.50;99.90;;;;;;4983369;28;20202;-72
2022/05/16 02:01:28;;;;;;;4.23;3.30;;;15.60;99.90;;;;;;4984977;28;20208;-73
2022/05/16 02:03:55;;;;;;;5.27;3.50;;;15.80;99.90;;;;;;4982251;28;20300;-71
2022/05/16 02:06:22;;;;;;;4.37;3.40;;;15.60;99.90;;;;;;4979425;28;20228;-72
2022/05/16 02:08:49;;;;;;;5.77;3.57;;;15.50;99.90;;;;;;4976392;28;20216;-72
2022/05/16 02:11:16;;;;;;;5.07;3.50;;;15.50;99.90;;;;;;4981470;28;20205;-74
2022/05/16 02:13:46;;;;;;;5.00;3.00;;;15.50;99.90;;;;;;4978165;28;20205;-70
2022/05/16 02:16:13;;;;;;;7.83;3.40;;;15.40;99.90;;;;;;4976588;28;20268;-72
2022/05/16 02:18:40;;;;;;;4.50;3.23;;;15.50;99.90;;;;;;4988771;28;20217;-75
2022/05/16 02:26:37;;;;;;;5.17;3.47;;;16.00;99.90;;;;;;4984017;28;20275;-71
2022/05/16 02:29:04;;;;;;;5.47;3.60;;;16.00;99.90;;;;;;4981813;28;20218;-71
2022/05/16 02:31:31;;;;;;;4.83;3.43;;;15.90;99.90;;;;;;4983331;28;20251;-73
2022/05/16 02:33:57;;;;;;;4.23;3.17;;;15.90;99.90;;;;;;4985114;28;20622;-71
2022/05/16 02:36:24;;;;;;;8.77;3.70;;;15.90;99.90;;;;;;4984166;28;20225;-71
2022/05/16 02:38:51;;;;;;;5.60;3.30;;;15.80;99.90;;;;;;4976608;28;20204;-74
2022/05/16 02:41:17;;;;;;;7.03;3.30;;;16.00;99.90;;;;;;4981589;28;20201;-71
2022/05/16 02:43:44;;;;;;;4.50;2.93;;;16.00;99.90;;;;;;4989483;28;20212;-71
2022/05/16 02:46:11;;;;;;;5.93;3.50;;;15.90;99.90;;;;;;4991843;28;20224;-74
2022/05/16 02:48:37;;;;;;;4.43;3.20;;;16.00;99.90;;;;;;4990430;28;20704;-71
2022/05/16 02:51:04;;;;;;;5.03;2.90;;;15.90;99.90;;;;;;4984585;28;20201;-71
2022/05/16 02:53:30;;;;;;;4.77;3.10;;;15.90;99.90;;;;;;4990955;28;20695;-72
2022/05/16 02:55:57;;;;;;;3.83;3.20;;;15.90;99.90;;;;;;4983876;28;20267;-71
2022/05/16 02:58:24;;;;;;;4.97;3.40;;;15.90;99.90;;;;;;4983909;28;20834;-72
2022/05/16 03:00:50;;;;;;;6.80;3.60;;;15.90;99.90;;;;;;4988973;28;20255;-72
2022/05/16 03:03:17;;;;;;;3.97;3.13;;;15.90;99.90;;;;;;4991648;28;20201;-73
2022/05/16 03:05:44;;;;;;;5.03;3.40;;;15.80;99.90;;;;;;4983776;28;20217;-72
2022/05/16 03:08:10;;;;;;;6.07;3.20;;;15.80;99.90;;;;;;4989270;28;20217;-72
2022/05/16 03:10:37;;;;;;;4.47;3.27;;;15.80;99.90;;;;;;4989738;28;20254;-72
2022/05/16 03:13:04;;;;;;;6.37;3.90;;;15.80;99.90;;;;;;4980674;28;20646;-71
2022/05/16 03:15:30;;;;;;;5.73;3.97;;;15.80;99.90;;;;;;4984683;28;20213;-74
2022/05/16 03:17:58;;;;;;;5.20;3.70;;;15.80;99.90;;;;;;4988002;28;20268;-71
2022/05/16 03:20:25;;;;;;;7.63;3.77;;;15.70;99.90;;;;;;4987049;28;20259;-73
2022/05/16 03:22:52;;;;;;;5.20;3.70;;;15.60;99.90;;;;;;4978756;28;20699;-72
2022/05/16 03:25:18;;;;;;;7.90;3.53;;;15.60;99.90;;;;;;4985102;28;20209;-70
2022/05/16 03:27:46;;;;;;;6.97;3.90;;;15.80;99.90;;;;;;4989208;28;20209;-71
2022/05/16 03:30:13;;;;;;;5.00;3.50;;;15.70;99.90;;;;;;4976400;28;20201;-72
2022/05/16 03:32:40;;;;;;;5.03;3.80;;;15.60;99.90;;;;;;4986443;28;20197;-71
2022/05/16 03:35:08;;;;;;;8.00;4.30;;;15.60;99.90;;;;;;4990511;28;20201;-71
2022/05/16 03:37:35;;;;;;;5.93;3.43;;;15.60;99.90;;;;;;4985635;28;20201;-71
2022/05/16 03:42:47;;;;;;;6.80;3.70;;;15.50;99.90;;;;;;4981693;28;20208;-71
2022/05/16 03:45:14;;;;;;;5.80;3.77;;;15.30;99.90;;;;;;4989468;28;20208;-72
2022/05/16 03:47:41;;;;;;;5.73;4.20;;;15.30;99.90;;;;;;4983698;28;20205;-71
2022/05/16 03:50:08;;;;;;;8.90;3.87;;;15.40;99.90;;;;;;4981791;28;20225;-71
2022/05/16 03:52:35;;;;;;;6.90;3.63;;;15.40;99.90;;;;;;4982997;28;20213;-71
2022/05/16 03:55:02;;;;;;;4.50;3.67;;;15.50;99.90;;;;;;4976010;28;20244;-71
2022/05/16 03:57:28;;;;;;;5.63;4.17;;;15.60;99.90;;;;;;4976592;28;20499;-72
2022/05/16 03:59:56;;;;;;;7.10;3.47;;;15.90;99.90;;;;;;4986982;28;20205;-71
2022/05/16 04:02:23;;;;;;;4.83;3.60;;;15.90;99.90;;;;;;4983834;28;20212;-72
2022/05/16 04:04:49;;;;;;;5.60;3.97;;;15.90;99.90;;;;;;4976171;28;20204;-70
2022/05/16 04:07:16;;;;;;;7.77;3.83;;;16.20;99.90;;;;;;4982676;28;20225;-71
2022/05/16 04:09:43;;;;;;;6.33;4.00;;;16.40;99.90;;;;;;4988377;28;20271;-71
2022/05/16 04:12:09;;;;;;;6.07;4.00;;;16.40;99.90;;;;;;4986211;28;20194;-71
2022/05/16 04:14:36;;;;;;;6.00;3.40;;;16.30;99.90;;;;;;4980560;28;20670;-70
2022/05/16 04:17:03;;;;;;;8.90;4.03;;;16.30;99.90;;;;;;4985623;28;20275;-71
2022/05/16 04:19:29;;;;;;;11.27;3.93;;;16.30;99.90;;;;;;4981643;28;20208;-71
2022/05/16 04:21:56;;;;;;;6.13;3.63;;;16.50;99.90;;;;;;4977089;28;20670;-71
2022/05/16 04:24:23;;;;;;;5.67;3.70;;;16.40;99.90;;;;;;4979919;28;20213;-71
2022/05/16 04:26:49;;;;;;;7.63;4.67;;;16.20;99.90;;;;;;4982126;28;20225;-74
2022/05/16 04:29:16;;;;;;;7.03;4.00;;;16.30;99.90;;;;;;4985054;28;20602;-73
2022/05/16 04:31:43;;;;;;;5.40;3.73;;;16.40;99.90;;;;;;4987453;28;20571;-72
2022/05/16 04:34:09;;;;;;;6.13;3.70;;;16.40;99.90;;;;;;4981113;28;20201;-72
2022/05/16 04:36:39;;;;;;;7.37;3.90;;;16.50;99.90;;;;;;4983729;28;20217;-74
2022/05/16 04:39:05;;;;;;;6.17;3.80;;;16.60;99.90;;;;;;4988141;28;20204;-72
2022/05/16 04:44:17;;;;;;;5.33;3.93;;;16.70;99.90;;;;;;4987814;28;20668;-73
2022/05/16 04:46:44;;;;;;;5.07;3.80;;;16.90;99.90;;;;;;4979765;28;20279;-74
2022/05/16 04:49:11;;;;;;;9.97;4.07;;;17.10;99.90;;;;;;4981572;28;20621;-71
2022/05/16 04:51:37;;;;;;;6.83;4.23;;;17.30;99.90;;;;;;4990956;28;20192;-72
2022/05/16 04:54:04;;;;;;;6.33;3.40;;;17.50;99.90;;;;;;4980662;28;20199;-72
2022/05/16 04:56:32;;;;;;;5.37;3.37;;;17.60;99.90;;;;;;4994056;28;20592;-72
2022/05/16 04:58:59;;;;;;;4.90;3.30;;;17.90;99.90;;;;;;4990195;28;20209;-72
2022/05/16 05:01:25;;;;;;;5.57;3.43;;;18.10;99.90;;;;;;4984928;28;20196;-71
2022/05/16 05:03:52;;;;;;;7.80;3.63;;;18.30;99.90;;;;;;4987142;28;20734;-72
2022/05/16 05:06:20;;;;;;;6.63;3.97;;;18.40;99.90;;;;;;4985329;28;20232;-72
2022/05/16 05:08:46;;;;;;;5.87;3.60;;;18.70;99.90;;;;;;4987400;28;20248;-73
2022/05/16 05:16:44;;;;;;;6.07;3.63;;;19.10;99.90;;;;;;4986175;28;20229;-71
2022/05/16 05:19:10;;;;;;;7.23;4.10;;;19.30;99.90;;;;;;4985432;28;20240;-74
2022/05/16 05:21:37;;;;;;;6.67;3.27;;;19.30;99.90;;;;;;4982131;28;20308;-73
2022/05/16 05:24:04;;;;;;;5.70;3.27;;;19.40;99.90;;;;;;4991895;28;20197;-72
2022/05/16 05:26:30;;;;;;;7.73;3.60;;;19.40;99.90;;;;;;4992878;28;20320;-71
2022/05/16 05:28:57;;;;;;;6.73;3.60;;;19.40;99.90;;;;;;4987704;28;20278;-75
2022/05/16 05:31:25;;;;;;;6.20;4.03;;;19.50;99.90;;;;;;4994814;28;20680;-71
2022/05/16 05:33:53;;;;;;;7.60;4.37;;;19.50;99.90;;;;;;4986086;28;20644;-69
2022/05/16 05:36:21;;;;;;;7.53;4.30;;;19.60;99.90;;;;;;4994470;28;20290;-72
2022/05/16 05:38:51;;;;;;;9.17;4.37;;;19.60;99.90;;;;;;4984670;28;20608;-75
2022/05/16 05:41:20;;;;;;;6.83;4.10;;;19.70;99.90;;;;;;4992325;28;20200;-76
2022/05/16 05:43:47;;;;;;;9.33;4.40;;;19.70;99.90;;;;;;4983909;28;20843;-72
2022/05/16 05:46:15;;;;;;;4.80;4.10;;;19.90;99.90;;;;;;4983471;28;20228;-76
2022/05/16 05:48:43;;;;;;;9.45;4.88;;;20.10;99.90;;;;;;4993847;28;20754;-75
2022/05/16 05:51:10;;;;;;;9.63;4.97;;;20.20;99.90;;;;;;4999013;28;20201;-74
2022/05/16 05:53:37;;;;;;;9.03;4.70;;;20.10;99.90;;;;;;4998369;28;20197;-75
2022/05/16 05:56:05;;;;;;;10.53;4.63;;;20.00;99.90;;;;;;4989053;28;20213;-71
2022/05/16 05:58:36;;;;;;;6.43;4.07;;;20.10;99.90;;;;;;4986259;28;20678;-71
2022/05/16 06:01:04;;;;;;;7.27;4.70;;;20.00;99.90;;;;;;4985968;28;20201;-73
2022/05/16 06:03:31;;;;;;;8.70;4.60;;;20.00;99.90;;;;;;4977654;28;20197;-75
2022/05/16 06:05:58;;;;;;;6.53;4.63;;;19.90;99.90;;;;;;4983745;28;20287;-74
2022/05/16 06:08:25;;;;;;;10.07;4.97;;;20.00;99.90;;;;;;4987070;28;20197;-73
2022/05/16 06:10:51;;;;;;;5.93;4.35;;;20.10;99.90;;;;;;4985629;28;20610;-74
2022/05/16 06:13:19;;;;;;;7.17;4.60;;;20.20;99.90;;;;;;4988211;28;20623;-72
2022/05/16 06:15:46;;;;;;;5.57;4.20;;;20.50;99.90;;;;;;4981398;28;20221;-73
2022/05/16 06:18:12;;;;;;;6.65;4.18;;;20.70;99.90;;;;;;4990174;28;20213;-73
2022/05/16 06:20:39;;;;;;;7.80;4.45;;;20.90;99.90;;;;;;4987408;28;20278;-73
2022/05/16 06:23:07;;;;;;;5.93;4.22;;;21.20;99.90;;;;;;4988634;28;20283;-73
2022/05/16 06:25:33;;;;;;;7.47;4.13;;;21.50;99.90;;;;;;4982560;28;20217;-73
2022/05/16 06:28:07;;;;;;;5.90;4.30;;;21.50;99.90;;;;;;4991504;28;20263;-71
2022/05/16 06:30:36;;;;;;;8.25;4.70;;;21.50;99.90;;;;;;4992093;28;20224;-73
2022/05/16 06:33:03;;;;;;;7.35;4.38;;;21.80;99.90;;;;;;4986622;28;20200;-73
2022/05/16 06:35:29;;;;;;;8.10;4.75;;;21.90;99.90;;;;;;4989099;28;20688;-74
2022/05/16 06:37:56;;;;;;;12.07;4.55;;;21.80;99.90;;;;;;4987799;28;20201;-73
2022/05/16 06:40:23;;;;;;;10.25;4.43;;;22.10;99.90;;;;;;4987823;28;20201;-74
2022/05/16 06:42:50;;;;;;;13.52;4.68;;;22.40;99.90;;;;;;4989826;28;20197;-73
2022/05/16 06:45:17;;;;;;;8.35;4.25;;;22.70;99.90;;;;;;4990327;28;20279;-75
2022/05/16 06:47:44;;;;;;;9.25;4.60;;;22.70;99.90;;;;;;4984784;28;20197;-75
2022/05/16 06:50:11;;;;;;;7.00;4.22;;;22.60;99.90;;;;;;4985993;28;20313;-77
2022/05/16 06:52:39;;;;;;;8.93;4.60;;;22.30;99.90;;;;;;4987372;28;20193;-74
2022/05/16 06:55:06;;;;;;;5.80;4.20;;;22.30;99.90;;;;;;4986072;28;20209;-76
2022/05/16 06:57:33;;;;;;;8.27;4.47;;;22.30;99.90;;;;;;4988520;28;20196;-74
2022/05/16 07:00:00;;;;;;;10.73;4.75;;;22.50;99.90;;;;;;4990569;28;20200;-76
2022/05/16 07:02:27;;;;;;;7.18;4.47;;;22.90;99.90;;;;;;4986863;28;20209;-74
2022/05/16 07:04:54;;;;;;;7.78;4.43;;;23.50;99.90;;;;;;4984819;28;20197;-73
2022/05/16 07:07:20;;;;;;;9.57;4.43;;;24.00;99.90;;;;;;4986759;28;20730;-75
2022/05/16 07:09:47;;;;;;;5.25;3.92;;;24.60;99.90;;;;;;4989267;28;20704;-73
2022/05/16 07:12:14;;;;;;;8.75;4.80;;;25.00;99.90;;;;;;4986914;28;20196;-75
2022/05/16 07:14:41;;;;;;;11.23;5.15;;;25.10;99.90;;;;;;4984397;28;20244;-76
2022/05/16 07:17:08;;;;;;;7.70;4.82;;;25.00;99.90;;;;;;4988010;28;20229;-74
2022/05/16 07:19:35;;;;;;;9.48;4.55;;;25.00;99.90;;;;;;4989891;28;20205;-75
2022/05/16 07:22:08;;;;;;;7.65;4.60;;;25.00;99.90;;;;;;4990372;28;20239;-74
2022/05/16 07:24:34;;;;;;;13.13;4.93;;;25.10;99.90;;;;;;4987036;28;20197;-74
2022/05/16 07:29:47;;;;;;;7.88;4.38;;;25.10;99.90;;;;;;4986472;28;20232;-74
2022/05/16 07:32:13;;;;;;;9.00;4.15;;;25.20;99.90;;;;;;4986521;28;20201;-74
2022/05/16 07:34:40;;;;;;;5.88;4.20;;;25.00;99.90;;;;;;4987033;28;20189;-74
2022/05/16 07:37:08;;;;;;;8.27;4.40;;;24.90;99.90;;;;;;4988036;28;20216;-77
2022/05/16 07:39:35;;;;;;;7.43;3.75;;;24.80;99.90;;;;;;4984095;28;20660;-74
2022/05/16 07:42:04;;;;;;;10.95;4.18;;;24.70;99.90;;;;;;4981855;28;20621;-75
2022/05/16 07:44:33;;;;;;;9.82;3.72;;;25.10;99.90;;;;;;4986779;28;20271;-75
2022/05/16 07:47:00;;;;;;;6.72;3.75;;;25.40;99.90;;;;;;4988434;28;20225;-74
2022/05/16 07:49:27;;;;;;;8.80;4.20;;;25.30;99.90;;;;;;4989469;28;20220;-76
2022/05/16 07:51:53;;;;;;;11.85;4.97;;;25.30;99.90;;;;;;4983895;28;20661;-72
2022/05/16 07:54:21;;;;;;;9.82;4.07;;;25.10;99.90;;;;;;4987391;28;20800;-75
2022/05/16 07:56:48;;;;;;;11.18;4.53;;;25.10;99.90;;;;;;4985870;28;20218;-75
2022/05/16 07:59:16;;;;;;;10.13;4.32;;;25.30;99.90;;;;;;4982598;28;20196;-75
2022/05/16 08:01:43;;;;;;;10.43;4.10;;;25.40;99.90;;;;;;4975000;28;20205;-73
2022/05/16 08:04:10;;;;;;;9.50;4.03;;;25.60;99.90;;;;;;4978665;28;20201;-76
2022/05/16 08:06:36;;;;;;;11.60;4.40;;;25.60;99.90;;;;;;4980215;28;20220;-76
2022/05/16 08:11:48;;;;;;;6.38;3.88;;;25.70;99.90;;;;;;4987342;28;20243;-74
2022/05/16 08:14:15;;;;;;;12.85;4.28;;;25.50;99.90;;;;;;4989027;28;20200;-72
2022/05/16 08:16:42;;;;;;;12.23;4.20;;;25.30;99.90;;;;;;4982140;28;20600;-72
2022/05/16 08:19:08;;;;;;;6.80;3.88;;;24.80;99.90;;;;;;4981695;28;20197;-72
2022/05/16 08:21:36;;;;;;;6.20;4.18;;;24.80;99.90;;;;;;4987098;28;20200;-72
2022/05/16 08:24:07;;;;;;;13.02;4.25;;;24.70;99.90;;;;;;4985183;28;20444;-74
2022/05/16 08:26:35;;;;;;;7.75;4.10;;;24.60;99.90;;;;;;4983924;28;20212;-75
2022/05/16 08:29:02;;;;;;;10.90;4.00;;;24.60;99.90;;;;;;4987332;28;20263;-72
2022/05/16 08:31:30;;;;;;;6.93;4.05;;;24.60;99.90;;;;;;4984595;28;20189;-73
2022/05/16 08:33:57;;;;;;;9.70;4.15;;;24.30;99.90;;;;;;4986122;28;20193;-74
2022/05/16 08:42:03;;;;;;;6.25;3.60;;;24.70;99.90;;;;;;4985247;28;21147;-73
2022/05/16 08:44:50;;;;;;;9.38;3.70;;;24.90;99.90;;;;;;4985368;28;20193;-74
2022/05/16 08:47:49;;;;;;;9.05;3.75;;;25.00;99.90;;;;;;4984511;28;20596;-77
2022/05/16 08:50:23;;;;;;;9.73;4.25;;;25.00;99.90;;;;;;4985026;28;20572;-76
2022/05/16 08:52:52;;;;;;;5.78;4.03;;;25.20;99.90;;;;;;4986324;28;20212;-74
2022/05/16 08:55:34;;;;;;;9.07;4.20;;;25.20;99.90;;;;;;4986837;28;20223;-75
2022/05/16 08:58:05;;;;;;;7.13;3.90;;;25.20;99.90;;;;;;4984313;28;20224;-72
2022/05/16 09:00:44;;;;;;;7.45;4.40;;;25.30;99.90;;;;;;4986433;28;20205;-71
2022/05/16 09:03:15;;;;;;;5.00;3.60;;;25.30;99.90;;;;;;4982368;28;20258;-72
2022/05/16 09:05:51;;;;;;;7.57;4.60;;;25.30;99.90;;;;;;4979095;28;20220;-76
2022/05/16 09:08:40;;;;;;;5.65;3.85;;;25.30;99.90;;;;;;4976952;28;20201;-76
2022/05/16 09:11:12;;;;;;;7.35;4.18;;;25.20;99.90;;;;;;4983903;28;20228;-72
2022/05/16 09:13:56;;;;;;;8.57;4.03;;;25.30;99.90;;;;;;4978884;28;20190;-71
2022/05/16 09:16:52;;;;;;;8.15;4.15;;;25.40;99.90;;;;;;4974741;28;20221;-73
2022/05/16 09:20:01;;;;;;;6.10;4.15;;;25.60;99.90;;;;;;4984256;28;20664;-72
2022/05/16 09:22:33;;;;;;;5.45;4.00;;;25.80;99.90;;;;;;4991274;28;20193;-75
2022/05/16 09:25:19;;;;;;;11.02;4.30;;;26.10;99.90;;;;;;4979488;28;20224;-71
2022/05/16 09:30:41;;;;;;;6.25;4.03;;;26.00;99.90;;;;;;4984455;28;20689;-76
2022/05/16 09:33:14;;;;;;;5.13;3.70;;;26.10;99.90;;;;;;4984463;28;20256;-69
2022/05/16 09:36:06;;;;;;;10.38;3.78;;;26.00;99.90;;;;;;4986187;28;20316;-73
2022/05/16 09:38:33;;;;;;;6.88;3.97;;;26.30;99.90;;;;;;4987037;28;20216;-74
2022/05/16 09:41:00;;;;;;;10.55;4.28;;;26.40;99.90;;;;;;4984917;28;20205;-71
2022/05/16 09:43:33;;;;;;;9.00;4.03;;;26.50;99.90;;;;;;4985505;28;20197;-71
2022/05/16 09:46:22;;;;;;;12.45;4.60;;;26.80;99.90;;;;;;4979941;28;20232;-74
2022/05/16 09:49:02;;;;;;;6.95;3.78;;;26.70;99.90;;;;;;4978338;28;20595;-75
2022/05/16 09:51:30;;;;;;;13.52;5.03;;;26.70;99.90;;;;;;4974915;28;20217;-72
2022/05/16 09:54:11;;;;;;;9.15;4.32;;;26.60;99.90;;;;;;4978173;28;20229;-73
2022/05/16 09:56:56;;;;;;;6.47;4.07;;;26.40;99.90;;;;;;4992060;28;20628;-73
2022/05/16 09:59:52;;;;;;;7.05;4.10;;;26.40;99.90;;;;;;4974457;28;20192;-74
2022/05/16 10:02:23;;;;;;;6.20;3.78;;;26.70;99.90;;;;;;4978275;28;20696;-74
2022/05/16 10:04:56;;;;;;;11.55;4.20;;;27.10;99.90;;;;;;4977734;28;20203;-74
2022/05/16 10:07:46;;;;;;;6.82;4.15;;;27.60;99.90;;;;;;4977192;28;20221;-75
2022/05/16 10:10:25;;;;;;;8.07;4.13;;;27.50;99.90;;;;;;4979523;28;20224;-73
2022/05/16 10:12:53;;;;;;;5.35;3.88;;;27.30;99.90;;;;;;4974789;28;20216;-74
2022/05/16 10:15:21;;;;;;;7.28;4.22;;;27.20;99.90;;;;;;4975887;28;20209;-75
2022/05/16 10:17:49;;;;;;;8.95;4.18;;;27.40;99.90;;;;;;4977987;28;20205;-73
2022/05/16 10:20:30;;;;;;;8.80;4.03;;;27.90;99.90;;;;;;4976140;28;20193;-77
2022/05/16 10:23:04;;;;;;;6.78;4.03;;;28.40;99.90;;;;;;4983046;28;20216;-73
2022/05/16 10:25:45;;;;;;;7.63;4.13;;;28.70;99.90;;;;;;4986862;28;20366;-76
2022/05/16 10:28:19;;;;;;;6.35;4.13;;;28.80;99.90;;;;;;4990929;28;20192;-76
2022/05/16 10:33:34;;;;;;;10.13;4.60;;;28.60;99.90;;;;;;4974271;28;20691;-74
2022/05/16 10:36:13;;;;;;;5.60;4.20;;;28.90;99.90;;;;;;4977042;28;20221;-74
2022/05/16 10:38:53;;;;;;;6.82;4.13;;;29.20;99.90;;;;;;4975506;28;20676;-74
2022/05/16 10:41:24;;;;;;;7.25;4.38;;;29.50;99.90;;;;;;4977452;28;20251;-77
2022/05/16 10:44:22;;;;;;;7.28;4.30;;;29.90;99.90;;;;;;4975937;28;20205;-78
2022/05/16 10:46:58;;;;;;;8.75;4.13;;;30.30;99.90;;;;;;4972939;28;20220;-73
2022/05/16 10:49:33;;;;;;;6.85;3.83;;;30.70;99.90;;;;;;4971721;28;20859;-78
2022/05/16 10:52:04;;;;;;;6.88;4.30;;;30.90;99.90;;;;;;4968325;28;20225;-71
2022/05/16 10:54:31;;;;;;;8.73;4.25;;;31.00;99.90;;;;;;4974626;28;20209;-76
2022/05/16 10:57:04;;;;;;;6.13;3.90;;;30.90;99.90;;;;;;4974372;28;20229;-75
2022/05/16 10:59:33;;;;;;;5.60;3.60;;;30.70;99.90;;;;;;4974465;28;20193;-74
2022/05/16 11:02:05;;;;;;;8.95;3.95;;;30.50;99.90;;;;;;4971885;28;20590;-75
2022/05/16 11:04:43;;;;;;;7.13;3.90;;;30.90;99.90;;;;;;4980209;28;20300;-76
2022/05/16 11:07:41;;;;;;;9.02;4.13;;;31.40;99.90;;;;;;4973894;28;20217;-77
2022/05/16 11:10:21;;;;;;;41.15;4.78;;;31.30;99.90;;;;;;4972100;28;20637;-76
2022/05/16 11:13:20;;;;;;;9.32;4.35;;;30.70;99.90;;;;;;4974114;28;20669;-73
2022/05/16 11:15:55;;;;;;;9.85;5.10;;;29.90;99.90;;;;;;4976938;28;20208;-71
2022/05/16 11:18:31;;;;;;;8.75;5.00;;;28.40;99.90;;;;;;4975109;28;20220;-71
2022/05/16 11:21:12;;;;;;;10.38;6.30;;;25.60;99.90;;;;;;4973498;28;20235;-74
2022/05/16 11:24:13;;;;;;;14.20;6.00;;;23.80;99.90;;;;;;4979545;28;20673;-71
2022/05/16 11:27:12;;;;;;;15.23;3.22;;;22.70;99.90;;;;;;4944979;28;20291;-72
2022/05/16 11:30:00;;;;;;;5.07;2.60;;;19.50;99.90;;;;;;4981489;28;20202;-70
2022/05/16 11:32:47;;;;;;;13.00;3.90;;;18.20;99.90;;;;;;4982296;28;20197;-70
2022/05/16 11:35:20;;;;;;;10.87;4.20;;;17.60;99.90;;;;;;4999349;28;20249;-70
2022/05/16 11:38:08;;;;;;;11.67;5.07;;;17.70;99.90;;;;;;4986031;28;20645;-71
2022/05/16 11:40:46;;;;;;;16.53;6.37;;;17.70;99.90;;;;;;4985481;28;20200;-71
2022/05/16 11:43:25;;;;;;;16.47;7.87;;;17.90;99.90;;;;;;4983533;28;20414;-71
2022/05/16 11:46:29;;;;;;;19.47;9.77;;;18.40;99.90;;;;;;4982079;28;20592;-71
2022/05/16 11:49:02;;;;;;;20.57;10.97;;;19.30;99.90;;;;;;4979964;28;20201;-69
2022/05/16 11:52:16;;;;;;;20.57;11.13;;;19.90;99.90;;;;;;4982008;28;20249;-72
2022/05/16 12:00:31;;;;;;;16.40;7.60;;;20.70;99.90;;;;;;4982202;28;20247;-79
2022/05/16 12:00:50;;;;;;;11.23;5.35;;;22.30;99.90;;;;;;4982417;28;20348;-78
2022/05/16 12:03:20;;;;;;;11.75;4.90;;;23.00;99.90;;;;;;4986476;28;20201;-77
2022/05/16 12:05:50;;;;;;;6.70;4.30;;;23.30;99.90;;;;;;4986646;28;20217;-77
2022/05/16 12:08:25;;;;;;;6.13;3.78;;;23.30;99.90;;;;;;4983928;28;20201;-75
2022/05/16 12:11:03;;;;;;;6.15;4.00;;;23.60;99.90;;;;;;4982064;28;20212;-77
2022/05/16 12:13:39;;;;;;;12.40;4.40;;;24.00;99.90;;;;;;4981980;28;20696;-77
2022/05/16 12:16:17;;;;;;;12.60;4.57;;;24.50;99.90;;;;;;4996335;28;20243;-78
2022/05/16 12:19:23;;;;;;;8.35;3.90;;;24.90;99.90;;;;;;4981896;28;20723;-76
2022/05/16 12:22:14;;;;;;;7.78;3.97;;;25.40;99.90;;;;;;4982768;28;20664;-74
2022/05/16 12:25:00;;;;;;;7.60;3.72;;;25.70;99.90;;;;;;4978504;28;20291;-76
2022/05/16 12:27:30;;;;;;;8.10;3.72;;;25.70;99.90;;;;;;4982713;28;20312;-75
2022/05/16 12:30:02;;;;;;;6.65;3.85;;;25.60;99.90;;;;;;4981114;28;20624;-76
2022/05/16 12:32:28;;;;;;;6.78;3.47;;;25.70;99.90;;;;;;4983355;28;20245;-75
2022/05/16 12:35:00;;;;;;;7.25;3.58;;;26.00;99.90;;;;;;4987168;28;20577;-74
2022/05/16 12:37:33;;;;;;;9.52;4.00;;;26.20;99.90;;;;;;4982591;28;20193;-75
2022/05/16 12:40:04;;;;;;;7.47;3.10;;;26.50;99.90;;;;;;4981981;28;20201;-76
2022/05/16 12:42:47;;;;;;;7.75;3.25;;;26.50;99.90;;;;;;4982441;28;20227;-76
2022/05/16 12:45:43;;;;;;;5.07;2.35;;;26.20;99.90;;;;;;4980831;28;20211;-74
2022/05/16 12:48:16;;;;;;;6.03;3.50;;;26.10;99.90;;;;;;4979740;28;20272;-79
2022/05/16 12:51:20;;;;;;;8.65;3.20;;;26.00;99.90;;;;;;4977329;28;20763;-74
2022/05/16 12:54:24;;;;;;;9.43;2.90;;;26.10;99.90;;;;;;4982726;28;21625;-75
2022/05/16 12:56:57;;;;;;;3.92;2.78;;;26.00;99.90;;;;;;4985745;28;20212;-76
2022/05/16 12:59:42;;;;;;;7.15;2.85;;;26.10;99.90;;;;;;4989699;28;20204;-74
2022/05/16 13:02:33;;;;;;;6.05;2.97;;;26.30;99.90;;;;;;4990054;28;20200;-74
2022/05/16 13:05:29;;;;;;;8.43;2.83;;;26.40;99.90;;;;;;4986882;28;20425;-72
2022/05/16 13:08:24;;;;;;;7.72;2.72;;;26.30;99.90;;;;;;4986616;28;20220;-75
2022/05/16 13:11:10;;;;;;;7.47;2.45;;;26.50;99.90;;;;;;4981191;28;20323;-76
2022/05/16 13:13:55;;;;;;;7.70;2.88;;;26.50;99.90;;;;;;4980713;28;20219;-75
2022/05/16 13:16:34;;;;;;;8.00;2.38;;;26.40;99.90;;;;;;4980242;28;20228;-74
2022/05/16 13:19:07;;;;;;;6.05;2.50;;;26.60;99.90;;;;;;4980739;28;20587;-76
2022/05/16 13:21:40;;;;;;;6.05;2.38;;;26.80;99.90;;;;;;4985270;28;20200;-73
2022/05/16 13:24:09;;;;;;;8.32;2.30;;;26.50;99.90;;;;;;4985660;28;20231;-73
2022/05/16 13:29:22;;;;;;;4.55;2.40;;;26.70;99.90;;;;;;4985879;28;20196;-75
2022/05/16 13:31:55;;;;;;;4.40;2.38;;;26.70;99.90;;;;;;4988987;28;20230;-72
2022/05/16 13:34:35;;;;;;;8.20;2.30;;;26.80;99.90;;;;;;4986546;28;20201;-73
2022/05/16 13:37:06;;;;;;;5.55;2.45;;;26.70;99.90;;;;;;4985828;28;20608;-74
2022/05/16 13:39:45;;;;;;;3.22;2.17;;;26.70;99.90;;;;;;4988547;28;20212;-72
2022/05/16 13:42:12;;;;;;;5.43;2.42;;;26.70;99.90;;;;;;4985933;28;20366;-71
2022/05/16 13:44:41;;;;;;;5.78;2.40;;;26.60;99.90;;;;;;4982093;28;20212;-73
2022/05/16 13:47:12;;;;;;;4.68;2.53;;;26.50;99.90;;;;;;4985388;28;20636;-74
2022/05/16 13:49:40;;;;;;;5.05;2.90;;;26.40;99.90;;;;;;4984725;28;20193;-75
2022/05/16 13:52:23;;;;;;;3.55;2.30;;;26.20;99.90;;;;;;4990390;28;20220;-75
2022/05/16 13:54:50;;;;;;;5.05;2.45;;;26.50;99.90;;;;;;4986497;28;20219;-75